SBGR/GRU METAR and TAF weather

Enter ICAO airport designator
Station Type Date Time Source
SBGR METAR 2019/04/25 07:00 UTC NOAA

SBGR 250700Z 13002KT 9999 BKN015 21/20 Q1020


Station Type Date Time Source
SBGR Decoded METAR 2019/04/25 07:00 UTC NOAA

Guarulhos Civ / Mil , Brazil (SBGR) 23-26S 046-28W
Apr 25, 2019 - 03:00 AM EDT / 2019.04.25 0700 UTC
Wind: from the SE (130 degrees) at 2 MPH (2 KT):0
Visibility: greater than 7 mile(s):0
Sky conditions: mostly cloudy
Temperature: 69 F (21 C)
Dew Point: 68 F (20 C)
Relative Humidity: 94%
Pressure (altimeter): 30.12 in. Hg (1020 hPa)
ob: SBGR 250700Z 13002KT 9999 BKN015 21/20 Q1020
cycle: 7

Station Type Date Time Source
SBGR TAF 2019/04/25 06:30 UTC NOAA

TAF TAF SBGR 250220Z 2506/2612 08005KT 9000 BKN011TX29/2517Z TN18/2608Z PROB30 2509/2511 3000 BR BKN005
BECMG 2513/2515 04005KT SCT035
BECMG 2517/2519 15010KT BKN020 PROB30 2519/2520 TSRA BKN020 FEW040CB
BECMG 2521/2523 11005KT BKN011 PROB40 2602/2608 05005KT SCT009 PROB30 2609/2611 0800 FG BKN001
RMK PHM

Example: see airport list